sensor_id;sensor_type;location;lat;lon;timestamp;P1;durP1;ratioP1;P2;durP2;ratioP2
553;SDS011;59;48.778;9.156;2022-10-28T00:01:04;7.83;;;4.90;;
553;SDS011;59;48.778;9.156;2022-10-28T00:03:36;5.43;;;4.10;;
553;SDS011;59;48.778;9.156;2022-10-28T00:06:07;5.87;;;3.93;;
553;SDS011;59;48.778;9.156;2022-10-28T00:08:40;7.60;;;4.87;;
553;SDS011;59;48.778;9.156;2022-10-28T00:11:07;9.50;;;4.83;;
553;SDS011;59;48.778;9.156;2022-10-28T00:13:38;8.03;;;4.30;;
553;SDS011;59;48.778;9.156;2022-10-28T00:16:08;6.40;;;4.10;;
553;SDS011;59;48.778;9.156;2022-10-28T00:18:39;8.17;;;4.03;;
553;SDS011;59;48.778;9.156;2022-10-28T00:21:15;6.63;;;3.97;;
553;SDS011;59;48.778;9.156;2022-10-28T00:23:42;9.73;;;4.70;;
553;SDS011;59;48.778;9.156;2022-10-28T00:26:09;7.70;;;4.60;;
553;SDS011;59;48.778;9.156;2022-10-28T00:28:40;7.27;;;4.73;;
553;SDS011;59;48.778;9.156;2022-10-28T00:31:07;9.03;;;4.07;;
553;SDS011;59;48.778;9.156;2022-10-28T00:33:33;5.20;;;4.20;;
553;SDS011;59;48.778;9.156;2022-10-28T00:36:09;5.00;;;3.63;;
553;SDS011;59;48.778;9.156;2022-10-28T00:38:37;7.87;;;4.13;;
553;SDS011;59;48.778;9.156;2022-10-28T00:41:03;6.70;;;4.07;;
553;SDS011;59;48.778;9.156;2022-10-28T00:43:41;6.00;;;3.90;;
553;SDS011;59;48.778;9.156;2022-10-28T00:46:19;6.70;;;3.80;;
553;SDS011;59;48.778;9.156;2022-10-28T00:48:48;7.87;;;4.43;;
553;SDS011;59;48.778;9.156;2022-10-28T00:51:16;6.87;;;4.13;;
553;SDS011;59;48.778;9.156;2022-10-28T00:53:43;8.40;;;4.70;;
553;SDS011;59;48.778;9.156;2022-10-28T00:56:12;7.30;;;4.37;;
553;SDS011;59;48.778;9.156;2022-10-28T00:58:38;8.07;;;3.67;;
553;SDS011;59;48.778;9.156;2022-10-28T01:01:04;7.00;;;4.30;;
553;SDS011;59;48.778;9.156;2022-10-28T01:03:30;11.33;;;4.50;;
553;SDS011;59;48.778;9.156;2022-10-28T01:05:56;7.83;;;4.30;;
553;SDS011;59;48.778;9.156;2022-10-28T01:08:22;5.77;;;4.00;;
553;SDS011;59;48.778;9.156;2022-10-28T01:13:32;5.73;;;3.53;;
553;SDS011;59;48.778;9.156;2022-10-28T01:32:19;5.33;;;3.97;;
553;SDS011;59;48.778;9.156;2022-10-28T01:40:46;5.10;;;3.80;;
553;SDS011;59;48.778;9.156;2022-10-28T01:43:22;5.47;;;3.83;;
553;SDS011;59;48.778;9.156;2022-10-28T01:48:29;10.40;;;4.87;;
553;SDS011;59;48.778;9.156;2022-10-28T01:51:02;9.43;;;5.00;;
553;SDS011;59;48.778;9.156;2022-10-28T01:53:31;8.50;;;4.40;;
553;SDS011;59;48.778;9.156;2022-10-28T01:56:01;6.73;;;4.50;;
553;SDS011;59;48.778;9.156;2022-10-28T01:58:29;6.50;;;3.93;;
553;SDS011;59;48.778;9.156;2022-10-28T02:00:57;6.57;;;4.30;;
553;SDS011;59;48.778;9.156;2022-10-28T02:03:24;6.57;;;4.33;;
553;SDS011;59;48.778;9.156;2022-10-28T02:05:54;6.50;;;4.37;;
553;SDS011;59;48.778;9.156;2022-10-28T02:25:14;6.40;;;4.40;;
553;SDS011;59;48.778;9.156;2022-10-28T02:27:46;7.90;;;4.43;;
553;SDS011;59;48.778;9.156;2022-10-28T02:30:21;5.33;;;4.23;;
553;SDS011;59;48.778;9.156;2022-10-28T02:32:52;6.10;;;3.97;;
553;SDS011;59;48.778;9.156;2022-10-28T02:37:54;6.40;;;4.50;;
553;SDS011;59;48.778;9.156;2022-10-28T02:40:23;8.47;;;5.13;;
553;SDS011;59;48.778;9.156;2022-10-28T02:42:54;7.20;;;4.67;;
553;SDS011;59;48.778;9.156;2022-10-28T02:45:25;7.67;;;4.73;;
553;SDS011;59;48.778;9.156;2022-10-28T02:47:54;7.20;;;4.30;;
553;SDS011;59;48.778;9.156;2022-10-28T02:50:29;7.37;;;4.70;;
553;SDS011;59;48.778;9.156;2022-10-28T02:53:00;9.23;;;4.80;;
553;SDS011;59;48.778;9.156;2022-10-28T02:55:31;9.20;;;5.20;;
553;SDS011;59;48.778;9.156;2022-10-28T02:58:00;7.77;;;5.03;;
553;SDS011;59;48.778;9.156;2022-10-28T03:00:26;8.97;;;4.53;;
553;SDS011;59;48.778;9.156;2022-10-28T03:02:51;7.43;;;4.77;;
553;SDS011;59;48.778;9.156;2022-10-28T03:05:17;7.47;;;4.57;;
553;SDS011;59;48.778;9.156;2022-10-28T03:07:44;8.33;;;4.73;;
553;SDS011;59;48.778;9.156;2022-10-28T03:10:09;4.50;;;3.90;;
553;SDS011;59;48.778;9.156;2022-10-28T03:12:35;7.90;;;4.30;;
553;SDS011;59;48.778;9.156;2022-10-28T03:15:01;7.00;;;4.37;;
553;SDS011;59;48.778;9.156;2022-10-28T03:17:27;7.10;;;4.40;;
553;SDS011;59;48.778;9.156;2022-10-28T03:19:53;8.90;;;4.57;;
553;SDS011;59;48.778;9.156;2022-10-28T03:22:19;6.80;;;4.57;;
553;SDS011;59;48.778;9.156;2022-10-28T03:24:44;8.97;;;4.60;;
553;SDS011;59;48.778;9.156;2022-10-28T03:27:10;6.40;;;4.43;;
553;SDS011;59;48.778;9.156;2022-10-28T03:29:36;10.17;;;4.83;;
553;SDS011;59;48.778;9.156;2022-10-28T03:32:01;8.47;;;4.87;;
553;SDS011;59;48.778;9.156;2022-10-28T03:34:27;7.10;;;4.73;;
553;SDS011;59;48.778;9.156;2022-10-28T03:36:53;7.87;;;4.70;;
553;SDS011;59;48.778;9.156;2022-10-28T03:39:18;8.77;;;4.53;;
553;SDS011;59;48.778;9.156;2022-10-28T03:41:44;8.17;;;4.87;;
553;SDS011;59;48.778;9.156;2022-10-28T03:44:10;7.43;;;5.13;;
553;SDS011;59;48.778;9.156;2022-10-28T03:46:36;8.97;;;4.83;;
553;SDS011;59;48.778;9.156;2022-10-28T03:49:02;6.30;;;4.60;;
553;SDS011;59;48.778;9.156;2022-10-28T03:51:28;5.90;;;4.97;;
553;SDS011;59;48.778;9.156;2022-10-28T03:53:53;10.07;;;4.60;;
553;SDS011;59;48.778;9.156;2022-10-28T03:56:19;8.30;;;4.90;;
553;SDS011;59;48.778;9.156;2022-10-28T03:58:46;8.43;;;5.00;;
553;SDS011;59;48.778;9.156;2022-10-28T04:01:12;10.60;;;5.23;;
553;SDS011;59;48.778;9.156;2022-10-28T04:03:38;6.80;;;4.90;;
553;SDS011;59;48.778;9.156;2022-10-28T04:06:04;10.13;;;5.10;;
553;SDS011;59;48.778;9.156;2022-10-28T04:08:30;7.73;;;4.47;;
553;SDS011;59;48.778;9.156;2022-10-28T04:10:55;7.37;;;4.60;;
553;SDS011;59;48.778;9.156;2022-10-28T04:13:21;8.30;;;4.90;;
553;SDS011;59;48.778;9.156;2022-10-28T04:15:47;7.53;;;4.97;;
553;SDS011;59;48.778;9.156;2022-10-28T04:18:12;7.30;;;5.00;;
553;SDS011;59;48.778;9.156;2022-10-28T04:20:38;8.23;;;5.00;;
553;SDS011;59;48.778;9.156;2022-10-28T04:23:04;6.90;;;4.60;;
553;SDS011;59;48.778;9.156;2022-10-28T04:25:30;7.37;;;4.63;;
553;SDS011;59;48.778;9.156;2022-10-28T04:27:55;8.70;;;4.53;;
553;SDS011;59;48.778;9.156;2022-10-28T04:30:21;9.63;;;4.97;;
553;SDS011;59;48.778;9.156;2022-10-28T04:32:47;9.37;;;5.57;;
553;SDS011;59;48.778;9.156;2022-10-28T04:35:13;8.00;;;4.97;;
553;SDS011;59;48.778;9.156;2022-10-28T04:37:38;6.83;;;4.93;;
553;SDS011;59;48.778;9.156;2022-10-28T04:40:05;8.60;;;5.20;;
553;SDS011;59;48.778;9.156;2022-10-28T04:42:32;6.77;;;5.23;;
553;SDS011;59;48.778;9.156;2022-10-28T04:44:57;8.40;;;5.33;;
553;SDS011;59;48.778;9.156;2022-10-28T04:47:23;10.93;;;6.20;;
553;SDS011;59;48.778;9.156;2022-10-28T04:49:49;7.87;;;5.03;;
553;SDS011;59;48.778;9.156;2022-10-28T04:52:14;8.80;;;5.60;;
553;SDS011;59;48.778;9.156;2022-10-28T04:54:40;8.10;;;5.93;;
553;SDS011;59;48.778;9.156;2022-10-28T04:57:06;6.47;;;4.93;;
553;SDS011;59;48.778;9.156;2022-10-28T04:59:31;8.30;;;5.27;;
553;SDS011;59;48.778;9.156;2022-10-28T05:01:57;7.93;;;6.17;;
553;SDS011;59;48.778;9.156;2022-10-28T05:04:26;10.13;;;5.60;;
553;SDS011;59;48.778;9.156;2022-10-28T05:06:52;9.60;;;5.30;;
553;SDS011;59;48.778;9.156;2022-10-28T05:09:17;9.73;;;5.80;;
553;SDS011;59;48.778;9.156;2022-10-28T05:11:43;9.47;;;5.43;;
553;SDS011;59;48.778;9.156;2022-10-28T05:14:08;11.43;;;5.77;;
553;SDS011;59;48.778;9.156;2022-10-28T05:16:34;7.50;;;5.27;;
553;SDS011;59;48.778;9.156;2022-10-28T05:19:00;6.97;;;4.90;;
553;SDS011;59;48.778;9.156;2022-10-28T05:21:26;7.37;;;4.73;;
553;SDS011;59;48.778;9.156;2022-10-28T05:23:51;8.23;;;5.30;;
553;SDS011;59;48.778;9.156;2022-10-28T05:26:17;10.37;;;5.53;;
553;SDS011;59;48.778;9.156;2022-10-28T05:28:43;12.13;;;5.37;;
553;SDS011;59;48.778;9.156;2022-10-28T05:31:15;9.43;;;5.77;;
553;SDS011;59;48.778;9.156;2022-10-28T05:33:42;10.50;;;5.33;;
553;SDS011;59;48.778;9.156;2022-10-28T05:36:07;8.80;;;5.73;;
553;SDS011;59;48.778;9.156;2022-10-28T05:38:33;8.03;;;5.10;;
553;SDS011;59;48.778;9.156;2022-10-28T05:40:59;7.53;;;5.10;;
553;SDS011;59;48.778;9.156;2022-10-28T05:43:25;8.73;;;5.90;;
553;SDS011;59;48.778;9.156;2022-10-28T05:45:51;19.50;;;13.40;;
553;SDS011;59;48.778;9.156;2022-10-28T05:48:20;15.70;;;10.40;;
553;SDS011;59;48.778;9.156;2022-10-28T05:50:46;12.37;;;8.83;;
553;SDS011;59;48.778;9.156;2022-10-28T05:53:12;9.90;;;7.50;;
553;SDS011;59;48.778;9.156;2022-10-28T05:55:37;8.83;;;6.63;;
553;SDS011;59;48.778;9.156;2022-10-28T05:58:03;8.30;;;6.10;;
553;SDS011;59;48.778;9.156;2022-10-28T06:00:29;13.33;;;7.00;;
553;SDS011;59;48.778;9.156;2022-10-28T06:03:02;9.00;;;6.20;;
553;SDS011;59;48.778;9.156;2022-10-28T06:05:40;13.27;;;6.10;;
553;SDS011;59;48.778;9.156;2022-10-28T06:08:07;8.30;;;6.27;;
553;SDS011;59;48.778;9.156;2022-10-28T06:10:34;8.17;;;5.80;;
553;SDS011;59;48.778;9.156;2022-10-28T06:12:59;11.83;;;6.23;;
553;SDS011;59;48.778;9.156;2022-10-28T06:15:25;7.30;;;5.53;;
553;SDS011;59;48.778;9.156;2022-10-28T06:17:51;8.60;;;5.50;;
553;SDS011;59;48.778;9.156;2022-10-28T06:20:17;10.23;;;6.23;;
553;SDS011;59;48.778;9.156;2022-10-28T06:22:50;8.50;;;5.33;;
553;SDS011;59;48.778;9.156;2022-10-28T06:25:17;11.33;;;6.20;;
553;SDS011;59;48.778;9.156;2022-10-28T06:27:44;10.70;;;5.97;;
553;SDS011;59;48.778;9.156;2022-10-28T06:30:10;9.20;;;5.60;;
553;SDS011;59;48.778;9.156;2022-10-28T06:32:36;9.30;;;5.90;;
553;SDS011;59;48.778;9.156;2022-10-28T06:35:02;23.53;;;14.60;;
553;SDS011;59;48.778;9.156;2022-10-28T06:37:27;15.57;;;10.50;;
553;SDS011;59;48.778;9.156;2022-10-28T06:39:53;15.90;;;9.67;;
553;SDS011;59;48.778;9.156;2022-10-28T06:42:19;14.10;;;9.20;;
553;SDS011;59;48.778;9.156;2022-10-28T06:44:45;11.83;;;7.90;;
553;SDS011;59;48.778;9.156;2022-10-28T06:47:10;11.27;;;7.10;;
553;SDS011;59;48.778;9.156;2022-10-28T06:49:36;12.10;;;7.03;;
553;SDS011;59;48.778;9.156;2022-10-28T06:52:02;9.60;;;6.07;;
553;SDS011;59;48.778;9.156;2022-10-28T06:54:28;8.47;;;6.17;;
553;SDS011;59;48.778;9.156;2022-10-28T06:56:53;9.50;;;5.80;;
553;SDS011;59;48.778;9.156;2022-10-28T06:59:19;6.63;;;4.80;;
553;SDS011;59;48.778;9.156;2022-10-28T07:01:44;15.07;;;6.20;;
553;SDS011;59;48.778;9.156;2022-10-28T07:04:11;7.47;;;5.43;;
553;SDS011;59;48.778;9.156;2022-10-28T07:06:37;10.37;;;5.20;;
553;SDS011;59;48.778;9.156;2022-10-28T07:09:04;7.73;;;5.17;;
553;SDS011;59;48.778;9.156;2022-10-28T07:11:30;11.87;;;5.57;;
553;SDS011;59;48.778;9.156;2022-10-28T07:13:55;11.20;;;5.10;;
553;SDS011;59;48.778;9.156;2022-10-28T07:16:21;7.53;;;4.70;;
553;SDS011;59;48.778;9.156;2022-10-28T07:18:46;8.23;;;4.93;;
553;SDS011;59;48.778;9.156;2022-10-28T07:21:12;7.70;;;4.57;;
553;SDS011;59;48.778;9.156;2022-10-28T07:23:38;8.23;;;4.60;;
553;SDS011;59;48.778;9.156;2022-10-28T07:26:04;12.07;;;4.10;;
553;SDS011;59;48.778;9.156;2022-10-28T07:28:30;8.77;;;3.90;;
553;SDS011;59;48.778;9.156;2022-10-28T07:31:00;10.53;;;4.33;;
553;SDS011;59;48.778;9.156;2022-10-28T07:33:26;9.77;;;3.20;;
553;SDS011;59;48.778;9.156;2022-10-28T07:35:52;14.33;;;3.57;;
553;SDS011;59;48.778;9.156;2022-10-28T07:38:17;9.30;;;4.10;;
553;SDS011;59;48.778;9.156;2022-10-28T07:40:43;6.43;;;3.57;;
553;SDS011;59;48.778;9.156;2022-10-28T07:43:09;5.40;;;3.53;;
553;SDS011;59;48.778;9.156;2022-10-28T07:45:34;8.47;;;4.37;;
553;SDS011;59;48.778;9.156;2022-10-28T07:48:01;7.47;;;3.07;;
553;SDS011;59;48.778;9.156;2022-10-28T07:50:27;8.23;;;4.17;;
553;SDS011;59;48.778;9.156;2022-10-28T07:52:53;6.43;;;3.60;;
553;SDS011;59;48.778;9.156;2022-10-28T07:55:18;11.47;;;3.70;;
553;SDS011;59;48.778;9.156;2022-10-28T07:57:47;5.87;;;3.17;;
553;SDS011;59;48.778;9.156;2022-10-28T08:00:13;4.80;;;3.30;;
553;SDS011;59;48.778;9.156;2022-10-28T08:02:39;7.47;;;3.50;;
553;SDS011;59;48.778;9.156;2022-10-28T08:05:04;6.60;;;3.27;;
553;SDS011;59;48.778;9.156;2022-10-28T08:07:30;4.97;;;3.00;;
553;SDS011;59;48.778;9.156;2022-10-28T08:09:57;6.03;;;3.47;;
553;SDS011;59;48.778;9.156;2022-10-28T08:12:23;4.70;;;3.30;;
553;SDS011;59;48.778;9.156;2022-10-28T08:14:48;4.00;;;3.23;;
553;SDS011;59;48.778;9.156;2022-10-28T08:17:14;4.63;;;3.40;;
553;SDS011;59;48.778;9.156;2022-10-28T08:19:40;6.20;;;3.67;;
553;SDS011;59;48.778;9.156;2022-10-28T08:22:05;4.80;;;3.53;;
553;SDS011;59;48.778;9.156;2022-10-28T08:24:31;3.73;;;2.90;;
553;SDS011;59;48.778;9.156;2022-10-28T08:26:57;5.20;;;3.10;;
553;SDS011;59;48.778;9.156;2022-10-28T08:29:23;7.10;;;3.57;;
553;SDS011;59;48.778;9.156;2022-10-28T08:31:48;6.33;;;3.80;;
553;SDS011;59;48.778;9.156;2022-10-28T08:34:14;4.73;;;3.40;;
553;SDS011;59;48.778;9.156;2022-10-28T08:36:39;5.73;;;3.57;;
553;SDS011;59;48.778;9.156;2022-10-28T08:39:05;5.30;;;3.90;;
553;SDS011;59;48.778;9.156;2022-10-28T08:49:20;5.17;;;3.90;;
553;SDS011;59;48.778;9.156;2022-10-28T08:51:51;5.27;;;3.93;;
553;SDS011;59;48.778;9.156;2022-10-28T08:54:25;4.70;;;3.90;;
553;SDS011;59;48.778;9.156;2022-10-28T08:56:54;4.63;;;3.40;;
553;SDS011;59;48.778;9.156;2022-10-28T08:59:28;4.13;;;3.43;;
553;SDS011;59;48.778;9.156;2022-10-28T09:02:00;4.63;;;3.63;;
553;SDS011;59;48.778;9.156;2022-10-28T09:04:42;6.80;;;4.37;;
553;SDS011;59;48.778;9.156;2022-10-28T09:07:14;7.20;;;4.80;;
553;SDS011;59;48.778;9.156;2022-10-28T09:09:46;6.50;;;4.17;;
553;SDS011;59;48.778;9.156;2022-10-28T09:17:42;4.57;;;3.77;;
553;SDS011;59;48.778;9.156;2022-10-28T09:20:27;6.87;;;4.13;;
553;SDS011;59;48.778;9.156;2022-10-28T09:23:19;5.47;;;4.07;;
553;SDS011;59;48.778;9.156;2022-10-28T09:25:51;6.47;;;5.10;;
553;SDS011;59;48.778;9.156;2022-10-28T09:28:31;10.70;;;4.60;;
553;SDS011;59;48.778;9.156;2022-10-28T09:31:22;8.93;;;5.70;;
553;SDS011;59;48.778;9.156;2022-10-28T09:36:46;9.73;;;6.50;;
553;SDS011;59;48.778;9.156;2022-10-28T09:39:26;9.30;;;6.20;;
553;SDS011;59;48.778;9.156;2022-10-28T09:41:53;10.40;;;6.13;;
553;SDS011;59;48.778;9.156;2022-10-28T09:45:04;12.63;;;6.47;;
553;SDS011;59;48.778;9.156;2022-10-28T09:47:15;16.03;;;6.70;;
553;SDS011;59;48.778;9.156;2022-10-28T09:49:43;9.93;;;5.43;;
553;SDS011;59;48.778;9.156;2022-10-28T09:52:23;9.30;;;5.10;;
553;SDS011;59;48.778;9.156;2022-10-28T09:54:51;7.90;;;4.70;;
553;SDS011;59;48.778;9.156;2022-10-28T09:57:18;8.27;;;5.00;;
553;SDS011;59;48.778;9.156;2022-10-28T09:59:44;7.40;;;4.53;;
553;SDS011;59;48.778;9.156;2022-10-28T10:02:23;10.10;;;5.10;;
553;SDS011;59;48.778;9.156;2022-10-28T10:04:50;10.43;;;5.20;;
553;SDS011;59;48.778;9.156;2022-10-28T10:07:18;8.90;;;5.20;;
553;SDS011;59;48.778;9.156;2022-10-28T10:10:15;12.73;;;4.97;;
553;SDS011;59;48.778;9.156;2022-10-28T10:12:47;6.63;;;4.77;;
553;SDS011;59;48.778;9.156;2022-10-28T10:15:30;12.53;;;5.07;;
553;SDS011;59;48.778;9.156;2022-10-28T10:18:04;6.40;;;4.50;;
553;SDS011;59;48.778;9.156;2022-10-28T10:21:13;8.10;;;4.37;;
553;SDS011;59;48.778;9.156;2022-10-28T10:23:29;6.03;;;4.10;;
553;SDS011;59;48.778;9.156;2022-10-28T10:26:03;9.77;;;4.63;;
553;SDS011;59;48.778;9.156;2022-10-28T10:28:42;6.50;;;3.40;;
553;SDS011;59;48.778;9.156;2022-10-28T10:31:22;13.20;;;3.50;;
553;SDS011;59;48.778;9.156;2022-10-28T10:33:54;8.57;;;3.37;;
553;SDS011;59;48.778;9.156;2022-10-28T10:36:22;7.47;;;3.80;;
553;SDS011;59;48.778;9.156;2022-10-28T10:38:56;5.63;;;3.20;;
553;SDS011;59;48.778;9.156;2022-10-28T10:44:23;11.67;;;3.30;;
553;SDS011;59;48.778;9.156;2022-10-28T10:49:26;6.40;;;3.47;;
553;SDS011;59;48.778;9.156;2022-10-28T10:51:53;9.47;;;4.07;;
553;SDS011;59;48.778;9.156;2022-10-28T10:54:39;4.90;;;2.90;;
553;SDS011;59;48.778;9.156;2022-10-28T10:57:20;9.47;;;2.70;;
553;SDS011;59;48.778;9.156;2022-10-28T10:59:47;8.30;;;3.00;;
553;SDS011;59;48.778;9.156;2022-10-28T11:02:30;29.57;;;20.30;;
553;SDS011;59;48.778;9.156;2022-10-28T11:05:05;24.80;;;15.20;;
553;SDS011;59;48.778;9.156;2022-10-28T11:07:31;18.30;;;11.60;;
553;SDS011;59;48.778;9.156;2022-10-28T11:09:57;10.07;;;6.40;;
553;SDS011;59;48.778;9.156;2022-10-28T11:14:58;7.20;;;4.90;;
553;SDS011;59;48.778;9.156;2022-10-28T11:17:57;6.40;;;3.90;;
553;SDS011;59;48.778;9.156;2022-10-28T11:20:44;6.07;;;3.67;;
553;SDS011;59;48.778;9.156;2022-10-28T11:25:59;6.43;;;2.83;;
553;SDS011;59;48.778;9.156;2022-10-28T11:46:23;5.23;;;2.70;;
553;SDS011;59;48.778;9.156;2022-10-28T11:52:03;5.40;;;3.27;;
553;SDS011;59;48.778;9.156;2022-10-28T12:19:55;41.50;;;29.93;;
553;SDS011;59;48.778;9.156;2022-10-28T12:22:26;36.70;;;26.03;;
553;SDS011;59;48.778;9.156;2022-10-28T12:24:57;30.20;;;21.20;;
553;SDS011;59;48.778;9.156;2022-10-28T12:27:33;16.93;;;11.87;;
553;SDS011;59;48.778;9.156;2022-10-28T12:30:06;16.93;;;9.57;;
553;SDS011;59;48.778;9.156;2022-10-28T12:32:40;12.30;;;8.23;;
553;SDS011;59;48.778;9.156;2022-10-28T12:35:12;13.03;;;8.97;;
553;SDS011;59;48.778;9.156;2022-10-28T12:37:44;11.70;;;8.00;;
553;SDS011;59;48.778;9.156;2022-10-28T12:40:38;8.87;;;7.17;;
553;SDS011;59;48.778;9.156;2022-10-28T12:43:17;9.73;;;6.07;;
553;SDS011;59;48.778;9.156;2022-10-28T12:45:53;9.77;;;6.00;;
553;SDS011;59;48.778;9.156;2022-10-28T12:48:28;9.07;;;5.10;;
553;SDS011;59;48.778;9.156;2022-10-28T12:51:13;9.20;;;5.40;;
553;SDS011;59;48.778;9.156;2022-10-28T12:53:45;7.10;;;4.40;;
553;SDS011;59;48.778;9.156;2022-10-28T12:56:20;8.23;;;4.80;;
553;SDS011;59;48.778;9.156;2022-10-28T12:58:57;6.43;;;4.00;;
553;SDS011;59;48.778;9.156;2022-10-28T13:01:45;6.60;;;4.30;;
553;SDS011;59;48.778;9.156;2022-10-28T13:04:12;6.90;;;4.03;;
553;SDS011;59;48.778;9.156;2022-10-28T13:18:22;3.33;;;3.00;;
553;SDS011;59;48.778;9.156;2022-10-28T13:21:12;5.27;;;3.23;;
553;SDS011;59;48.778;9.156;2022-10-28T13:24:01;7.30;;;3.83;;
553;SDS011;59;48.778;9.156;2022-10-28T13:26:52;9.90;;;4.10;;
553;SDS011;59;48.778;9.156;2022-10-28T13:29:25;7.50;;;3.70;;
553;SDS011;59;48.778;9.156;2022-10-28T13:31:52;6.03;;;3.63;;
553;SDS011;59;48.778;9.156;2022-10-28T13:34:19;7.90;;;3.70;;
553;SDS011;59;48.778;9.156;2022-10-28T13:36:54;5.93;;;3.33;;
553;SDS011;59;48.778;9.156;2022-10-28T13:39:38;62.30;;;41.30;;
553;SDS011;59;48.778;9.156;2022-10-28T13:47:32;35.03;;;24.57;;
553;SDS011;59;48.778;9.156;2022-10-28T13:52:31;26.47;;;19.80;;
553;SDS011;59;48.778;9.156;2022-10-28T13:57:38;21.73;;;15.80;;
553;SDS011;59;48.778;9.156;2022-10-28T14:02:46;18.70;;;13.80;;
553;SDS011;59;48.778;9.156;2022-10-28T14:05:13;15.10;;;11.67;;
553;SDS011;59;48.778;9.156;2022-10-28T14:10:23;12.00;;;10.20;;
553;SDS011;59;48.778;9.156;2022-10-28T14:13:16;13.87;;;10.23;;
553;SDS011;59;48.778;9.156;2022-10-28T14:15:43;11.00;;;8.40;;
553;SDS011;59;48.778;9.156;2022-10-28T14:20:39;8.50;;;7.00;;
553;SDS011;59;48.778;9.156;2022-10-28T14:28:48;9.10;;;6.20;;
553;SDS011;59;48.778;9.156;2022-10-28T14:33:33;8.87;;;6.20;;
553;SDS011;59;48.778;9.156;2022-10-28T14:36:12;7.70;;;5.27;;
553;SDS011;59;48.778;9.156;2022-10-28T14:49:12;7.10;;;4.70;;
553;SDS011;59;48.778;9.156;2022-10-28T14:52:03;7.50;;;4.60;;
553;SDS011;59;48.778;9.156;2022-10-28T14:54:50;6.00;;;4.10;;
553;SDS011;59;48.778;9.156;2022-10-28T14:57:19;6.03;;;4.20;;
553;SDS011;59;48.778;9.156;2022-10-28T14:59:55;5.80;;;4.37;;
553;SDS011;59;48.778;9.156;2022-10-28T15:07:27;5.07;;;3.70;;
553;SDS011;59;48.778;9.156;2022-10-28T15:09:53;4.73;;;3.90;;
553;SDS011;59;48.778;9.156;2022-10-28T15:12:20;4.60;;;3.50;;
553;SDS011;59;48.778;9.156;2022-10-28T15:14:48;6.20;;;3.90;;
553;SDS011;59;48.778;9.156;2022-10-28T15:17:20;5.17;;;3.67;;
553;SDS011;59;48.778;9.156;2022-10-28T15:19:48;4.63;;;3.33;;
553;SDS011;59;48.778;9.156;2022-10-28T15:22:21;6.10;;;4.00;;
553;SDS011;59;48.778;9.156;2022-10-28T15:24:58;5.03;;;3.37;;
553;SDS011;59;48.778;9.156;2022-10-28T15:27:30;4.73;;;3.47;;
553;SDS011;59;48.778;9.156;2022-10-28T15:29:57;8.83;;;3.97;;
553;SDS011;59;48.778;9.156;2022-10-28T15:32:24;4.67;;;3.67;;
553;SDS011;59;48.778;9.156;2022-10-28T15:34:55;4.93;;;3.50;;
553;SDS011;59;48.778;9.156;2022-10-28T15:37:22;4.30;;;3.10;;
553;SDS011;59;48.778;9.156;2022-10-28T15:39:50;7.23;;;4.10;;
553;SDS011;59;48.778;9.156;2022-10-28T15:42:38;4.87;;;3.70;;
553;SDS011;59;48.778;9.156;2022-10-28T15:45:34;5.10;;;4.00;;
553;SDS011;59;48.778;9.156;2022-10-28T15:48:00;5.87;;;3.40;;
553;SDS011;59;48.778;9.156;2022-10-28T15:50:32;5.20;;;3.60;;
553;SDS011;59;48.778;9.156;2022-10-28T15:56:15;4.60;;;3.27;;
553;SDS011;59;48.778;9.156;2022-10-28T15:58:59;5.10;;;3.33;;
553;SDS011;59;48.778;9.156;2022-10-28T16:06:51;42.63;;;32.73;;
553;SDS011;59;48.778;9.156;2022-10-28T16:11:56;37.40;;;27.67;;
553;SDS011;59;48.778;9.156;2022-10-28T16:14:30;27.10;;;17.90;;
553;SDS011;59;48.778;9.156;2022-10-28T16:17:23;22.37;;;16.20;;
553;SDS011;59;48.778;9.156;2022-10-28T16:20:06;22.80;;;16.10;;
553;SDS011;59;48.778;9.156;2022-10-28T16:22:35;20.17;;;14.00;;
553;SDS011;59;48.778;9.156;2022-10-28T16:25:04;20.13;;;13.70;;
553;SDS011;59;48.778;9.156;2022-10-28T16:27:36;24.70;;;17.27;;
553;SDS011;59;48.778;9.156;2022-10-28T16:30:01;51.27;;;36.13;;
553;SDS011;59;48.778;9.156;2022-10-28T16:32:28;42.73;;;30.30;;
553;SDS011;59;48.778;9.156;2022-10-28T16:35:13;37.50;;;27.07;;
553;SDS011;59;48.778;9.156;2022-10-28T16:37:43;28.93;;;21.30;;
553;SDS011;59;48.778;9.156;2022-10-28T16:40:09;28.43;;;20.57;;
553;SDS011;59;48.778;9.156;2022-10-28T16:42:35;26.17;;;18.90;;
553;SDS011;59;48.778;9.156;2022-10-28T16:45:02;22.93;;;16.50;;
553;SDS011;59;48.778;9.156;2022-10-28T16:47:31;23.10;;;15.33;;
553;SDS011;59;48.778;9.156;2022-10-28T16:49:57;18.77;;;14.67;;
553;SDS011;59;48.778;9.156;2022-10-28T16:52:32;16.73;;;12.70;;
553;SDS011;59;48.778;9.156;2022-10-28T16:54:58;14.90;;;11.27;;
553;SDS011;59;48.778;9.156;2022-10-28T16:57:24;15.10;;;10.80;;
553;SDS011;59;48.778;9.156;2022-10-28T16:59:50;13.90;;;10.20;;
553;SDS011;59;48.778;9.156;2022-10-28T17:02:32;12.40;;;8.93;;
553;SDS011;59;48.778;9.156;2022-10-28T17:04:58;12.10;;;9.00;;
553;SDS011;59;48.778;9.156;2022-10-28T17:07:25;12.27;;;8.20;;
553;SDS011;59;48.778;9.156;2022-10-28T17:09:51;10.50;;;7.70;;
553;SDS011;59;48.778;9.156;2022-10-28T17:12:18;11.73;;;7.70;;
553;SDS011;59;48.778;9.156;2022-10-28T17:14:45;11.80;;;7.57;;
553;SDS011;59;48.778;9.156;2022-10-28T17:17:11;10.60;;;6.87;;
553;SDS011;59;48.778;9.156;2022-10-28T17:19:37;8.60;;;6.00;;
553;SDS011;59;48.778;9.156;2022-10-28T17:22:03;8.00;;;6.40;;
553;SDS011;59;48.778;9.156;2022-10-28T17:24:29;23.07;;;17.37;;
553;SDS011;59;48.778;9.156;2022-10-28T17:26:55;23.60;;;16.63;;
553;SDS011;59;48.778;9.156;2022-10-28T17:29:20;21.80;;;16.43;;
553;SDS011;59;48.778;9.156;2022-10-28T17:31:46;21.83;;;16.00;;
553;SDS011;59;48.778;9.156;2022-10-28T17:34:12;21.50;;;14.73;;
553;SDS011;59;48.778;9.156;2022-10-28T17:36:38;17.93;;;12.70;;
553;SDS011;59;48.778;9.156;2022-10-28T17:39:04;16.50;;;11.73;;
553;SDS011;59;48.778;9.156;2022-10-28T17:41:33;15.57;;;11.10;;
553;SDS011;59;48.778;9.156;2022-10-28T17:43:59;14.67;;;11.00;;
553;SDS011;59;48.778;9.156;2022-10-28T17:46:25;16.30;;;10.80;;
553;SDS011;59;48.778;9.156;2022-10-28T17:48:50;14.60;;;9.73;;
553;SDS011;59;48.778;9.156;2022-10-28T17:51:16;13.90;;;9.53;;
553;SDS011;59;48.778;9.156;2022-10-28T17:53:44;13.70;;;9.10;;
553;SDS011;59;48.778;9.156;2022-10-28T17:56:09;13.33;;;8.63;;
553;SDS011;59;48.778;9.156;2022-10-28T17:58:35;11.80;;;7.97;;
553;SDS011;59;48.778;9.156;2022-10-28T18:01:02;11.27;;;7.10;;
553;SDS011;59;48.778;9.156;2022-10-28T18:03:29;11.60;;;7.80;;
553;SDS011;59;48.778;9.156;2022-10-28T18:05:55;10.17;;;6.63;;
553;SDS011;59;48.778;9.156;2022-10-28T18:08:21;10.97;;;7.20;;
553;SDS011;59;48.778;9.156;2022-10-28T18:10:51;12.67;;;7.60;;
553;SDS011;59;48.778;9.156;2022-10-28T18:13:17;10.57;;;7.27;;
553;SDS011;59;48.778;9.156;2022-10-28T18:15:43;9.20;;;6.20;;
553;SDS011;59;48.778;9.156;2022-10-28T18:18:08;11.10;;;6.80;;
553;SDS011;59;48.778;9.156;2022-10-28T18:20:34;9.00;;;6.53;;
553;SDS011;59;48.778;9.156;2022-10-28T18:23:01;10.73;;;7.17;;
553;SDS011;59;48.778;9.156;2022-10-28T18:25:26;7.97;;;5.90;;
553;SDS011;59;48.778;9.156;2022-10-28T18:27:52;7.63;;;5.40;;
553;SDS011;59;48.778;9.156;2022-10-28T18:30:17;10.43;;;6.23;;
553;SDS011;59;48.778;9.156;2022-10-28T18:32:43;9.27;;;6.30;;
553;SDS011;59;48.778;9.156;2022-10-28T18:35:09;11.77;;;6.53;;
553;SDS011;59;48.778;9.156;2022-10-28T18:37:34;12.80;;;7.80;;
553;SDS011;59;48.778;9.156;2022-10-28T18:40:00;11.30;;;6.90;;
553;SDS011;59;48.778;9.156;2022-10-28T18:42:26;9.47;;;6.93;;
553;SDS011;59;48.778;9.156;2022-10-28T18:44:52;12.37;;;6.87;;
553;SDS011;59;48.778;9.156;2022-10-28T18:47:22;9.33;;;6.20;;
553;SDS011;59;48.778;9.156;2022-10-28T18:49:49;10.17;;;6.20;;
553;SDS011;59;48.778;9.156;2022-10-28T18:52:15;12.47;;;6.63;;
553;SDS011;59;48.778;9.156;2022-10-28T18:54:40;10.87;;;6.70;;
553;SDS011;59;48.778;9.156;2022-10-28T18:57:06;9.70;;;6.20;;
553;SDS011;59;48.778;9.156;2022-10-28T18:59:32;9.80;;;5.93;;
553;SDS011;59;48.778;9.156;2022-10-28T19:01:58;9.93;;;6.60;;
553;SDS011;59;48.778;9.156;2022-10-28T19:04:23;10.23;;;6.90;;
553;SDS011;59;48.778;9.156;2022-10-28T19:06:49;9.93;;;6.27;;
553;SDS011;59;48.778;9.156;2022-10-28T19:09:15;8.43;;;6.03;;
553;SDS011;59;48.778;9.156;2022-10-28T19:11:40;9.17;;;6.17;;
553;SDS011;59;48.778;9.156;2022-10-28T19:14:06;8.77;;;5.83;;